Raccoon, Illinois
Current Conditions -  °F | °C
As of 7:55 PM on Wednesday 26 Nov 2014 (Local Time) from KENL Reporting Station
Light Snow Light Snow  
Wind Chill: 32°   Ceiling: 500
Heat Index: 32°   Visibility: 2.5mi
Dew Point: 31°   Wind: 0mph
Humidity: 96%   Direction: NA
Pressure: 30.06"   Gusts: NA
Location:  38.5134°N, 89.1673°W
Report Text: KENL 270155Z AUTO 00000KT 2 1/2SM -SN BKN005 OVC033 00/M01 A3006 RMK AO2 T00001006
Loading
Personal Weather Stations






























Interactive Weather Map New forecast layout! Learn more

10-Day Weather Forecast

Advertisements
Track Severe Weather on mobile